createdAt,value
2022-11-24T00:00:00.714Z,112.77
2022-11-24T00:05:03.469Z,112.03
2022-11-24T00:10:06.579Z,116.57
2022-11-24T00:15:09.584Z,108.87
2022-11-24T00:20:12.380Z,114.67
2022-11-24T00:25:15.120Z,114.40
2022-11-24T00:30:17.922Z,117.13
2022-11-24T00:35:20.620Z,104.47
2022-11-24T00:40:23.346Z,105.70
2022-11-24T00:45:26.040Z,106.23
2022-11-24T00:50:29.131Z,107.80
2022-11-24T00:55:31.870Z,99.43
2022-11-24T01:00:34.666Z,96.03
2022-11-24T01:05:38.094Z,104.13
2022-11-24T01:10:40.932Z,95.63
2022-11-24T01:15:43.723Z,95.33
2022-11-24T01:20:46.476Z,109.83
2022-11-24T01:25:49.195Z,99.83
2022-11-24T01:31:03.395Z,117.27
2022-11-24T01:36:06.669Z,106.40
2022-11-24T01:41:12.389Z,111.80
2022-11-24T01:46:27.052Z,108.50
2022-11-24T01:51:34.614Z,96.77
2022-11-24T01:56:41.873Z,113.57
2022-11-24T02:01:44.759Z,108.07
2022-11-24T02:06:49.004Z,105.37
2022-11-24T02:11:53.680Z,104.30
2022-11-24T02:16:56.480Z,98.87
2022-11-24T02:21:59.455Z,120.23
2022-11-24T02:27:02.529Z,110.20
2022-11-24T02:32:07.811Z,114.57
2022-11-24T02:37:10.566Z,112.60
2022-11-24T02:42:14.119Z,110.50
2022-11-24T02:47:17.348Z,115.23
2022-11-24T02:52:20.337Z,123.57
2022-11-24T02:57:23.730Z,117.40
2022-11-24T03:02:26.509Z,115.03
2022-11-24T03:07:29.341Z,111.53
2022-11-24T03:12:32.073Z,114.13
2022-11-24T03:17:34.873Z,120.10
2022-11-24T03:22:37.678Z,112.93
2022-11-24T03:27:40.553Z,115.07
2022-11-24T03:32:43.353Z,115.83
2022-11-24T03:37:46.060Z,117.27
2022-11-24T03:42:48.790Z,112.23
2022-11-24T03:47:52.548Z,109.77
2022-11-24T03:52:55.450Z,112.80
2022-11-24T03:57:58.203Z,116.27
2022-11-24T04:03:01.046Z,111.90
2022-11-24T04:08:05.609Z,102.80
2022-11-24T04:13:20.082Z,118.87
2022-11-24T04:18:22.919Z,108.27
2022-11-24T04:23:25.675Z,99.97
2022-11-24T04:28:28.384Z,107.20
2022-11-24T04:33:31.182Z,103.57
2022-11-24T04:39:23.332Z,116.30
2022-11-24T04:43:56.659Z,111.50
2022-11-24T04:48:59.377Z,98.97
2022-11-24T04:54:02.316Z,92.10
2022-11-24T04:59:08.502Z,133.53
2022-11-24T05:04:13.944Z,113.53
2022-11-24T05:09:17.951Z,107.10
2022-11-24T05:14:20.734Z,112.27
2022-11-24T05:19:25.361Z,118.43
2022-11-24T05:24:30.158Z,105.17
2022-11-24T05:29:32.885Z,108.10
2022-11-24T05:34:35.808Z,113.00
2022-11-24T05:39:38.747Z,111.20
2022-11-24T05:44:41.510Z,125.83
2022-11-24T05:49:44.232Z,110.83
2022-11-24T05:54:49.158Z,139.93
2022-11-24T05:59:51.513Z,130.97
2022-11-24T06:04:53.834Z,124.03
2022-11-24T06:09:56.243Z,114.20
2022-11-24T06:14:58.549Z,116.47
2022-11-24T06:20:00.977Z,112.43
2022-11-24T06:25:03.742Z,124.20
2022-11-24T06:30:06.494Z,109.70
2022-11-24T06:35:09.058Z,104.60
2022-11-24T06:40:11.610Z,103.33
2022-11-24T06:45:13.984Z,119.13
2022-11-24T06:50:16.480Z,111.70
2022-11-24T06:55:18.930Z,121.20
2022-11-24T07:00:21.325Z,118.00
2022-11-24T07:05:23.671Z,124.23
2022-11-24T07:10:26.019Z,171.70
2022-11-24T07:15:28.970Z,168.60
2022-11-24T07:20:31.545Z,154.87
2022-11-24T07:25:33.889Z,171.77
2022-11-24T07:30:38.873Z,133.10
2022-11-24T07:35:41.200Z,121.53
2022-11-24T07:40:43.575Z,158.63
2022-11-24T07:45:52.657Z,139.07
2022-11-24T07:50:56.316Z,144.30
2022-11-24T07:56:00.629Z,144.67
2022-11-24T08:01:15.072Z,118.10
2022-11-24T08:06:30.299Z,123.33
2022-11-24T08:11:38.484Z,115.50
2022-11-24T08:16:40.919Z,132.60
2022-11-24T08:21:43.290Z,130.27
2022-11-24T08:26:46.868Z,131.70
2022-11-24T08:31:49.264Z,121.73
2022-11-24T08:36:52.305Z,131.67
2022-11-24T08:41:54.625Z,118.47
2022-11-24T08:46:57.062Z,120.07
2022-11-24T08:51:59.514Z,138.13
2022-11-24T08:57:02.226Z,119.30
2022-11-24T09:02:04.728Z,142.23
2022-11-24T09:07:07.124Z,115.60
2022-11-24T09:12:14.301Z,139.47
2022-11-24T09:17:17.151Z,117.13
2022-11-24T09:22:19.673Z,120.90
2022-11-24T09:27:22.279Z,123.63
2022-11-24T09:32:24.640Z,107.77
2022-11-24T09:37:32.423Z,113.67
2022-11-24T09:42:40.864Z,125.57
2022-11-24T09:48:00.893Z,114.30
2022-11-24T09:53:14.369Z,121.50
2022-11-24T09:58:38.537Z,135.70
2022-11-24T10:04:05.548Z,131.93
2022-11-24T10:09:19.549Z,130.43
2022-11-24T10:14:31.064Z,130.27
2022-11-24T10:19:44.359Z,122.33
2022-11-24T10:24:58.764Z,107.03
2022-11-24T10:30:01.815Z,108.00
2022-11-24T10:35:15.258Z,123.43
2022-11-24T10:40:49.189Z,147.77
2022-11-24T10:45:47.384Z,124.77
2022-11-24T10:50:52.832Z,132.33
2022-11-24T10:55:58.110Z,117.53
2022-11-24T11:01:18.616Z,136.73
2022-11-24T11:06:29.176Z,116.00
2022-11-24T11:11:31.504Z,112.90
2022-11-24T11:16:54.230Z,129.23
2022-11-24T11:22:11.990Z,159.13
2022-11-24T11:27:22.974Z,142.00
2022-11-24T11:37:51.646Z,133.57
2022-11-24T11:43:04.576Z,123.17
2022-11-24T11:48:22.406Z,119.10
2022-11-24T11:53:46.516Z,133.37
2022-11-24T11:59:07.128Z,136.70
2022-11-24T12:04:32.123Z,131.83
2022-11-24T12:09:46.660Z,119.73
2022-11-24T12:15:10.834Z,131.80
2022-11-24T12:20:44.303Z,153.53
2022-11-24T12:26:34.047Z,191.60
2022-11-24T12:32:00.155Z,138.97
2022-11-24T12:37:17.056Z,138.70
2022-11-24T12:42:25.286Z,119.73
2022-11-24T12:47:56.585Z,137.47
2022-11-24T12:53:20.863Z,125.47
2022-11-24T12:58:45.648Z,129.00
2022-11-24T13:04:15.303Z,122.13
2022-11-24T13:09:18.295Z,142.17
2022-11-24T13:14:30.779Z,160.13
2022-11-24T13:19:36.093Z,144.97
2022-11-24T13:24:40.065Z,134.00
2022-11-24T13:29:44.640Z,161.67
2022-11-24T13:34:54.808Z,141.47
2022-11-24T13:39:59.677Z,132.50
2022-11-24T13:45:03.756Z,127.23
2022-11-24T13:50:21.614Z,139.00
2022-11-24T13:55:31.734Z,140.77
2022-11-24T14:00:58.372Z,162.70
2022-11-24T14:06:02.190Z,170.57
2022-11-24T14:11:15.175Z,160.77
2022-11-24T14:16:22.269Z,155.50
2022-11-24T14:21:33.968Z,164.90
2022-11-24T14:26:41.098Z,139.00
2022-11-24T14:31:53.157Z,164.67
2022-11-24T14:36:57.062Z,162.80
2022-11-24T14:42:07.926Z,139.80
2022-11-24T14:47:30.491Z,303.70
2022-11-24T14:52:35.122Z,187.73
2022-11-24T14:57:40.361Z,258.20
2022-11-24T15:02:48.464Z,189.47
2022-11-24T15:08:00.804Z,213.73
2022-11-24T15:13:24.100Z,204.93
2022-11-24T15:18:47.873Z,341.20
2022-11-24T15:24:25.707Z,379.23
2022-11-24T15:29:28.179Z,169.40
2022-11-24T15:34:30.489Z,175.53
2022-11-24T15:39:34.302Z,199.70
2022-11-24T15:44:37.035Z,190.07
2022-11-24T15:49:39.505Z,162.73
2022-11-24T15:54:41.787Z,180.80
2022-11-24T15:59:44.328Z,192.93
2022-11-24T16:04:46.633Z,172.13
2022-11-24T16:09:48.959Z,168.97
2022-11-24T16:14:51.248Z,168.27
2022-11-24T16:20:00.273Z,172.47
2022-11-24T16:25:04.296Z,166.60
2022-11-24T16:30:08.331Z,164.53
2022-11-24T16:35:10.726Z,149.63
2022-11-24T16:40:13.387Z,152.07
2022-11-24T16:45:15.786Z,149.70
2022-11-24T16:50:18.075Z,151.27
2022-11-24T16:55:20.379Z,151.70
2022-11-24T17:00:23.142Z,184.10
2022-11-24T17:05:25.731Z,190.90
2022-11-24T17:10:28.071Z,169.30
2022-11-24T17:15:33.841Z,213.67
2022-11-24T17:20:37.013Z,276.97
2022-11-24T17:25:39.350Z,355.23
2022-11-24T17:30:41.797Z,382.03
2022-11-24T17:35:44.066Z,241.90
2022-11-24T17:40:47.944Z,194.70
2022-11-24T17:45:58.514Z,188.53
2022-11-24T17:51:03.314Z,165.03
2022-11-24T17:56:07.073Z,176.37
2022-11-24T18:01:09.977Z,314.87
2022-11-24T18:06:14.931Z,267.30
2022-11-24T18:11:28.877Z,221.17
2022-11-24T18:16:35.687Z,213.57
2022-11-24T18:21:40.481Z,264.13
2022-11-24T18:26:43.652Z,251.27
2022-11-24T18:31:46.407Z,276.23
2022-11-24T18:36:52.139Z,263.97
2022-11-24T18:41:54.485Z,257.47
2022-11-24T18:46:56.870Z,229.63
2022-11-24T18:51:59.590Z,253.20
2022-11-24T18:57:03.660Z,279.40
2022-11-24T19:02:06.430Z,229.93
2022-11-24T19:07:08.802Z,345.97
2022-11-24T19:12:11.270Z,304.30
2022-11-24T19:17:14.197Z,285.70
2022-11-24T19:22:16.605Z,243.00
2022-11-24T19:27:21.013Z,252.23
2022-11-24T19:32:23.377Z,303.67
2022-11-24T19:37:27.380Z,284.87
2022-11-24T19:42:29.769Z,297.80
2022-11-24T19:47:32.108Z,285.90
2022-11-24T19:52:34.481Z,287.10
2022-11-24T19:57:36.804Z,349.30
2022-11-24T20:02:39.156Z,327.53
2022-11-24T20:07:41.618Z,303.53
2022-11-24T20:12:43.997Z,372.00
2022-11-24T20:17:46.947Z,368.70
2022-11-24T20:22:49.273Z,320.37
2022-11-24T20:27:51.580Z,304.67
2022-11-24T20:32:53.910Z,286.03
2022-11-24T20:38:02.423Z,281.47
2022-11-24T20:43:04.737Z,327.10
2022-11-24T20:48:07.403Z,299.30
2022-11-24T20:53:09.764Z,394.37
2022-11-24T20:58:12.128Z,309.30
2022-11-24T21:03:14.460Z,252.37
2022-11-24T21:08:17.777Z,311.37
2022-11-24T21:13:20.202Z,286.97
2022-11-24T21:18:23.094Z,274.33
2022-11-24T21:23:25.422Z,270.60
2022-11-24T21:28:28.448Z,253.10
2022-11-24T21:33:30.856Z,221.23
2022-11-24T21:38:33.287Z,220.33
2022-11-24T21:43:36.195Z,325.00
2022-11-24T21:48:40.249Z,312.00
2022-11-24T21:53:43.724Z,252.30
2022-11-24T21:58:48.027Z,219.70
2022-11-24T22:03:50.436Z,195.83
2022-11-24T22:08:52.856Z,239.37
2022-11-24T22:13:55.269Z,216.40
2022-11-24T22:19:00.398Z,191.07
2022-11-24T22:24:03.313Z,209.80
2022-11-24T22:29:06.180Z,191.70
2022-11-24T22:34:08.548Z,175.07
2022-11-24T22:39:12.291Z,194.17
2022-11-24T22:44:14.570Z,174.03
2022-11-24T22:49:16.967Z,184.50
2022-11-24T22:54:19.367Z,201.10
2022-11-24T22:59:21.700Z,199.90
2022-11-24T23:04:24.149Z,200.60
2022-11-24T23:09:26.624Z,171.83
2022-11-24T23:14:29.206Z,204.90
2022-11-24T23:19:32.050Z,210.30
2022-11-24T23:24:38.184Z,204.23
2022-11-24T23:29:40.779Z,256.97
2022-11-24T23:34:43.199Z,243.60
2022-11-24T23:39:45.728Z,160.30
2022-11-24T23:44:48.225Z,167.00
2022-11-24T23:49:50.625Z,165.87
2022-11-24T23:54:52.947Z,187.00
2022-11-24T23:59:55.289Z,184.30
